Eloy, AZ (85131)

7:00 AM MST on December 07, 2016 (GMT -0700)
ROBSON Ranch | | Change Station

Elev 1476 ft 32.81 °N, 111.64 °W | Updated 24 seconds ago

Partly Cloudy
Partly Cloudy
40.9 °F
Feels Like 41 °F
N
0.0
Wind Variable Wind from NNE

Today
High -- | Low -- °F
--% Chance of Precip.
Yesterday
High -- | Low -- °F
Precip. -- in
Pressure 30.01 in
Visibility 10.0 miles
Clouds Few 3900 ft
Few 4700 ft
Windchill 41 °F
Dew Point 35 °F
Humidity 80%
Rainfall 0.00 in
Snow Depth Not available.
7:15 AM 5:19 PM
First Quarter, 52% visible
METAR KP08 071355Z AUTO 12008KT 10SM FEW039 FEW047 08/03 A3001 RMK AO2
Pressure 30.01 in
Visibility 10.0 miles
Clouds Few 3900 ft
Few 4700 ft
Windchill 41 °F
Dew Point 35 °F
Humidity 80%
Rainfall 0.00 in
Snow Depth Not available.
7:15 AM 5:19 PM
First Quarter, 52% visible
METAR KP08 071355Z AUTO 12008KT 10SM FEW039 FEW047 08/03 A3001 RMK AO2

10-Day Weather Forecast

Almanac

Astronomy

Dec. 07, 2016 Rise Set
Actual Time
Civil Twilight
Nautical Twilight
Astronomical Twilight
Moon
Length of Visible Light
Length of Day
Tomorrow will be .
, % of the Moon is Illuminated

Today's Extremes

State Highs State Lows

Community

WunderPhotos

Upload Photos

1,956,114 photos uploaded!

WunderBlog® & News

Nearby

Air Quality

  Air Quality AQ Index Pollutant
Not available.

Snow Depth

Station Depth Elevation

Earthquake Activity

City Distance Mag. Time & Date
Minimum magnitude displayed is 2.5.

Coastal Water Temperatures

Place Temperature

Stations

Nearby Weather Stations

Station Location Temp. Windchill Dew Point Humidity Wind Precip. Elev Updated Type
                   

Watches & Warnings

There are currently no watches in effect.